sensor_id;sensor_type;location;lat;lon;timestamp;temperature;humidity
31675;DHT22;18276;45.520;11.018;2022-10-17T00:01:43;16.30;99.90
31675;DHT22;18276;45.520;11.018;2022-10-17T00:04:10;16.30;99.90
31675;DHT22;18276;45.520;11.018;2022-10-17T00:06:37;16.40;99.90
31675;DHT22;18276;45.520;11.018;2022-10-17T00:09:04;16.40;99.90
31675;DHT22;18276;45.520;11.018;2022-10-17T00:11:31;16.50;99.90
31675;DHT22;18276;45.520;11.018;2022-10-17T00:13:58;16.50;99.90
31675;DHT22;18276;45.520;11.018;2022-10-17T00:16:28;16.60;99.90
31675;DHT22;18276;45.520;11.018;2022-10-17T00:18:56;16.70;99.30
31675;DHT22;18276;45.520;11.018;2022-10-17T00:21:23;16.80;98.60
31675;DHT22;18276;45.520;11.018;2022-10-17T00:23:52;16.90;98.00
31675;DHT22;18276;45.520;11.018;2022-10-17T00:26:19;16.90;97.30
31675;DHT22;18276;45.520;11.018;2022-10-17T00:28:47;17.00;96.80
31675;DHT22;18276;45.520;11.018;2022-10-17T00:31:16;17.10;96.50
31675;DHT22;18276;45.520;11.018;2022-10-17T00:33:44;17.10;96.10
31675;DHT22;18276;45.520;11.018;2022-10-17T00:36:17;17.10;95.70
31675;DHT22;18276;45.520;11.018;2022-10-17T00:38:46;17.10;95.40
31675;DHT22;18276;45.520;11.018;2022-10-17T00:41:15;17.10;95.10
31675;DHT22;18276;45.520;11.018;2022-10-17T00:46:18;17.10;94.40
31675;DHT22;18276;45.520;11.018;2022-10-17T00:48:45;17.20;94.20
31675;DHT22;18276;45.520;11.018;2022-10-17T00:51:13;17.20;94.00
31675;DHT22;18276;45.520;11.018;2022-10-17T00:53:41;17.20;93.90
31675;DHT22;18276;45.520;11.018;2022-10-17T00:56:08;17.20;93.70
31675;DHT22;18276;45.520;11.018;2022-10-17T00:58:36;17.20;93.60
31675;DHT22;18276;45.520;11.018;2022-10-17T01:01:04;17.20;93.40
31675;DHT22;18276;45.520;11.018;2022-10-17T01:03:31;17.20;93.30
31675;DHT22;18276;45.520;11.018;2022-10-17T01:05:58;17.20;93.20
31675;DHT22;18276;45.520;11.018;2022-10-17T01:08:25;17.20;93.10
31675;DHT22;18276;45.520;11.018;2022-10-17T01:13:48;17.20;92.80
31675;DHT22;18276;45.520;11.018;2022-10-17T01:16:45;17.20;92.80
31675;DHT22;18276;45.520;11.018;2022-10-17T01:24:47;17.10;92.70
31675;DHT22;18276;45.520;11.018;2022-10-17T01:27:35;17.00;92.80
31675;DHT22;18276;45.520;11.018;2022-10-17T01:32:44;16.90;93.00
31675;DHT22;18276;45.520;11.018;2022-10-17T01:35:50;16.90;93.10
31675;DHT22;18276;45.520;11.018;2022-10-17T01:38:46;16.90;93.10
31675;DHT22;18276;45.520;11.018;2022-10-17T01:44:14;16.80;93.10
31675;DHT22;18276;45.520;11.018;2022-10-17T01:46:48;16.80;93.10
31675;DHT22;18276;45.520;11.018;2022-10-17T01:49:19;16.70;93.20
31675;DHT22;18276;45.520;11.018;2022-10-17T01:52:00;16.60;93.30
31675;DHT22;18276;45.520;11.018;2022-10-17T01:54:38;16.70;93.40
31675;DHT22;18276;45.520;11.018;2022-10-17T01:57:13;16.60;93.50
31675;DHT22;18276;45.520;11.018;2022-10-17T01:59:45;16.60;93.60
31675;DHT22;18276;45.520;11.018;2022-10-17T02:02:16;16.60;93.70
31675;DHT22;18276;45.520;11.018;2022-10-17T02:04:46;16.60;93.80
31675;DHT22;18276;45.520;11.018;2022-10-17T02:07:14;16.50;93.80
31675;DHT22;18276;45.520;11.018;2022-10-17T02:09:41;16.50;93.80
31675;DHT22;18276;45.520;11.018;2022-10-17T02:15:46;16.60;93.80
31675;DHT22;18276;45.520;11.018;2022-10-17T02:21:32;16.50;94.20
31675;DHT22;18276;45.520;11.018;2022-10-17T02:24:11;16.60;93.90
31675;DHT22;18276;45.520;11.018;2022-10-17T02:26:59;16.50;93.90
31675;DHT22;18276;45.520;11.018;2022-10-17T02:29:55;16.50;94.00
31675;DHT22;18276;45.520;11.018;2022-10-17T02:32:39;16.50;94.10
31675;DHT22;18276;45.520;11.018;2022-10-17T02:35:14;16.50;94.10
31675;DHT22;18276;45.520;11.018;2022-10-17T02:37:45;16.50;94.10
31675;DHT22;18276;45.520;11.018;2022-10-17T02:40:15;16.50;94.10
31675;DHT22;18276;45.520;11.018;2022-10-17T02:42:44;16.50;94.00
31675;DHT22;18276;45.520;11.018;2022-10-17T02:45:13;16.50;94.00
31675;DHT22;18276;45.520;11.018;2022-10-17T02:50:13;16.50;94.00
31675;DHT22;18276;45.520;11.018;2022-10-17T02:52:53;16.40;94.00
31675;DHT22;18276;45.520;11.018;2022-10-17T02:55:27;16.40;94.00
31675;DHT22;18276;45.520;11.018;2022-10-17T02:58:05;16.40;94.10
31675;DHT22;18276;45.520;11.018;2022-10-17T03:00:37;16.40;94.10
31675;DHT22;18276;45.520;11.018;2022-10-17T03:03:26;16.40;94.10
31675;DHT22;18276;45.520;11.018;2022-10-17T03:05:53;16.40;94.10
31675;DHT22;18276;45.520;11.018;2022-10-17T03:08:23;16.30;94.20
31675;DHT22;18276;45.520;11.018;2022-10-17T03:10:51;16.30;94.20
31675;DHT22;18276;45.520;11.018;2022-10-17T03:13:19;16.30;94.30
31675;DHT22;18276;45.520;11.018;2022-10-17T03:15:46;16.30;94.40
31675;DHT22;18276;45.520;11.018;2022-10-17T03:18:13;16.20;94.60
31675;DHT22;18276;45.520;11.018;2022-10-17T03:20:40;16.20;94.70
31675;DHT22;18276;45.520;11.018;2022-10-17T03:23:07;16.20;94.90
31675;DHT22;18276;45.520;11.018;2022-10-17T03:25:35;16.10;95.00
31675;DHT22;18276;45.520;11.018;2022-10-17T03:28:03;16.10;95.20
31675;DHT22;18276;45.520;11.018;2022-10-17T03:30:32;16.00;95.20
31675;DHT22;18276;45.520;11.018;2022-10-17T03:32:59;16.10;95.40
31675;DHT22;18276;45.520;11.018;2022-10-17T03:35:26;16.00;95.40
31675;DHT22;18276;45.520;11.018;2022-10-17T03:37:54;16.00;95.50
31675;DHT22;18276;45.520;11.018;2022-10-17T03:40:23;15.90;95.60
31675;DHT22;18276;45.520;11.018;2022-10-17T03:42:51;15.90;95.70
31675;DHT22;18276;45.520;11.018;2022-10-17T03:45:18;15.90;95.90
31675;DHT22;18276;45.520;11.018;2022-10-17T03:47:46;15.90;95.90
31675;DHT22;18276;45.520;11.018;2022-10-17T03:50:14;15.90;96.00
31675;DHT22;18276;45.520;11.018;2022-10-17T03:52:46;15.90;96.10
31675;DHT22;18276;45.520;11.018;2022-10-17T03:55:14;15.90;96.10
31675;DHT22;18276;45.520;11.018;2022-10-17T03:57:42;15.90;96.20
31675;DHT22;18276;45.520;11.018;2022-10-17T04:00:12;15.90;96.20
31675;DHT22;18276;45.520;11.018;2022-10-17T04:02:40;15.90;96.20
31675;DHT22;18276;45.520;11.018;2022-10-17T04:05:11;16.00;96.10
31675;DHT22;18276;45.520;11.018;2022-10-17T04:07:39;16.00;96.00
31675;DHT22;18276;45.520;11.018;2022-10-17T04:10:07;16.00;95.80
31675;DHT22;18276;45.520;11.018;2022-10-17T04:12:34;16.10;95.60
31675;DHT22;18276;45.520;11.018;2022-10-17T04:15:02;16.10;95.40
31675;DHT22;18276;45.520;11.018;2022-10-17T04:17:30;16.10;95.70
31675;DHT22;18276;45.520;11.018;2022-10-17T04:20:04;16.00;95.40
31675;DHT22;18276;45.520;11.018;2022-10-17T04:22:31;16.00;95.40
31675;DHT22;18276;45.520;11.018;2022-10-17T04:24:58;16.00;95.40
31675;DHT22;18276;45.520;11.018;2022-10-17T04:27:33;16.00;95.50
31675;DHT22;18276;45.520;11.018;2022-10-17T04:30:00;15.90;95.60
31675;DHT22;18276;45.520;11.018;2022-10-17T04:32:30;15.90;95.70
31675;DHT22;18276;45.520;11.018;2022-10-17T04:35:10;15.90;95.70
31675;DHT22;18276;45.520;11.018;2022-10-17T04:37:41;15.90;95.80
31675;DHT22;18276;45.520;11.018;2022-10-17T04:40:15;15.90;95.80
31675;DHT22;18276;45.520;11.018;2022-10-17T04:42:42;15.80;95.80
31675;DHT22;18276;45.520;11.018;2022-10-17T04:45:12;15.80;95.90
31675;DHT22;18276;45.520;11.018;2022-10-17T04:47:40;15.90;95.90
31675;DHT22;18276;45.520;11.018;2022-10-17T04:50:07;15.80;95.90
31675;DHT22;18276;45.520;11.018;2022-10-17T04:52:35;15.80;96.00
31675;DHT22;18276;45.520;11.018;2022-10-17T04:55:07;15.80;96.00
31675;DHT22;18276;45.520;11.018;2022-10-17T04:57:34;15.80;96.00
31675;DHT22;18276;45.520;11.018;2022-10-17T05:00:12;15.80;96.10
31675;DHT22;18276;45.520;11.018;2022-10-17T05:02:46;15.80;96.10
31675;DHT22;18276;45.520;11.018;2022-10-17T05:05:14;15.70;96.10
31675;DHT22;18276;45.520;11.018;2022-10-17T05:07:43;15.70;96.20
31675;DHT22;18276;45.520;11.018;2022-10-17T05:10:14;15.70;96.10
31675;DHT22;18276;45.520;11.018;2022-10-17T05:12:46;15.70;96.20
31675;DHT22;18276;45.520;11.018;2022-10-17T05:15:16;15.70;96.20
31675;DHT22;18276;45.520;11.018;2022-10-17T05:17:43;15.70;96.20
31675;DHT22;18276;45.520;11.018;2022-10-17T05:20:11;15.70;96.20
31675;DHT22;18276;45.520;11.018;2022-10-17T05:22:38;15.70;96.30
31675;DHT22;18276;45.520;11.018;2022-10-17T05:25:09;15.70;96.40
31675;DHT22;18276;45.520;11.018;2022-10-17T05:27:36;15.70;96.50
31675;DHT22;18276;45.520;11.018;2022-10-17T05:30:04;15.70;96.60
31675;DHT22;18276;45.520;11.018;2022-10-17T05:32:35;15.70;96.70
31675;DHT22;18276;45.520;11.018;2022-10-17T05:35:02;15.70;96.70
31675;DHT22;18276;45.520;11.018;2022-10-17T05:37:31;15.60;96.60
31675;DHT22;18276;45.520;11.018;2022-10-17T05:39:59;15.70;96.70
31675;DHT22;18276;45.520;11.018;2022-10-17T05:42:28;15.70;96.60
31675;DHT22;18276;45.520;11.018;2022-10-17T05:44:56;15.60;96.50
31675;DHT22;18276;45.520;11.018;2022-10-17T05:47:25;15.70;96.50
31675;DHT22;18276;45.520;11.018;2022-10-17T05:49:52;15.70;96.40
31675;DHT22;18276;45.520;11.018;2022-10-17T05:52:25;15.70;96.30
31675;DHT22;18276;45.520;11.018;2022-10-17T05:55:02;15.80;96.30
31675;DHT22;18276;45.520;11.018;2022-10-17T05:57:30;15.80;96.20
31675;DHT22;18276;45.520;11.018;2022-10-17T05:59:58;15.80;96.10
31675;DHT22;18276;45.520;11.018;2022-10-17T06:02:27;15.90;96.00
31675;DHT22;18276;45.520;11.018;2022-10-17T06:04:55;15.80;95.90
31675;DHT22;18276;45.520;11.018;2022-10-17T06:07:23;15.90;95.80
31675;DHT22;18276;45.520;11.018;2022-10-17T06:09:51;15.90;95.70
31675;DHT22;18276;45.520;11.018;2022-10-17T06:12:18;16.00;95.50
31675;DHT22;18276;45.520;11.018;2022-10-17T06:14:45;16.10;95.30
31675;DHT22;18276;45.520;11.018;2022-10-17T06:17:14;16.20;95.00
31675;DHT22;18276;45.520;11.018;2022-10-17T06:19:43;16.30;94.60
31675;DHT22;18276;45.520;11.018;2022-10-17T06:22:13;16.50;94.30
31675;DHT22;18276;45.520;11.018;2022-10-17T06:24:40;16.80;93.70
31675;DHT22;18276;45.520;11.018;2022-10-17T06:27:08;16.90;92.90
31675;DHT22;18276;45.520;11.018;2022-10-17T06:29:40;17.20;92.10
31675;DHT22;18276;45.520;11.018;2022-10-17T06:32:07;17.40;91.40
31675;DHT22;18276;45.520;11.018;2022-10-17T06:34:42;17.60;90.90
31675;DHT22;18276;45.520;11.018;2022-10-17T06:37:09;17.70;90.40
31675;DHT22;18276;45.520;11.018;2022-10-17T06:39:38;17.90;90.00
31675;DHT22;18276;45.520;11.018;2022-10-17T06:42:18;18.00;89.10
31675;DHT22;18276;45.520;11.018;2022-10-17T06:45:07;18.20;88.10
31675;DHT22;18276;45.520;11.018;2022-10-17T06:47:52;18.50;87.10
31675;DHT22;18276;45.520;11.018;2022-10-17T06:50:39;18.70;85.90
31675;DHT22;18276;45.520;11.018;2022-10-17T06:53:19;19.00;84.60
31675;DHT22;18276;45.520;11.018;2022-10-17T06:56:07;19.10;83.60
31675;DHT22;18276;45.520;11.018;2022-10-17T06:59:14;19.20;82.50
31675;DHT22;18276;45.520;11.018;2022-10-17T07:01:49;19.00;81.90
31675;DHT22;18276;45.520;11.018;2022-10-17T07:04:16;18.80;82.00
31675;DHT22;18276;45.520;11.018;2022-10-17T07:06:43;18.60;82.30
31675;DHT22;18276;45.520;11.018;2022-10-17T07:09:15;18.40;82.80
31675;DHT22;18276;45.520;11.018;2022-10-17T07:11:43;18.30;83.40
31675;DHT22;18276;45.520;11.018;2022-10-17T07:14:10;18.30;83.80
31675;DHT22;18276;45.520;11.018;2022-10-17T07:16:37;18.50;83.90
31675;DHT22;18276;45.520;11.018;2022-10-17T07:19:11;18.90;83.50
31675;DHT22;18276;45.520;11.018;2022-10-17T07:21:38;19.60;82.20
31675;DHT22;18276;45.520;11.018;2022-10-17T07:24:08;20.10;79.90
31675;DHT22;18276;45.520;11.018;2022-10-17T07:26:35;20.60;78.00
31675;DHT22;18276;45.520;11.018;2022-10-17T07:29:03;21.20;76.10
31675;DHT22;18276;45.520;11.018;2022-10-17T07:31:52;21.80;73.90
31675;DHT22;18276;45.520;11.018;2022-10-17T07:34:19;22.50;71.50
31675;DHT22;18276;45.520;11.018;2022-10-17T07:36:48;23.10;69.10
31675;DHT22;18276;45.520;11.018;2022-10-17T07:39:15;23.80;67.00
31675;DHT22;18276;45.520;11.018;2022-10-17T07:41:44;24.50;64.60
31675;DHT22;18276;45.520;11.018;2022-10-17T07:44:11;25.20;62.50
31675;DHT22;18276;45.520;11.018;2022-10-17T07:46:43;25.80;59.90
31675;DHT22;18276;45.520;11.018;2022-10-17T07:49:10;26.50;58.40
31675;DHT22;18276;45.520;11.018;2022-10-17T07:51:39;27.00;56.80
31675;DHT22;18276;45.520;11.018;2022-10-17T07:54:06;27.50;55.30
31675;DHT22;18276;45.520;11.018;2022-10-17T07:56:33;28.10;53.90
31675;DHT22;18276;45.520;11.018;2022-10-17T07:59:00;28.60;52.80
31675;DHT22;18276;45.520;11.018;2022-10-17T08:01:32;29.20;51.40
31675;DHT22;18276;45.520;11.018;2022-10-17T08:03:59;29.60;50.30
31675;DHT22;18276;45.520;11.018;2022-10-17T08:06:26;30.00;49.40
31675;DHT22;18276;45.520;11.018;2022-10-17T08:08:54;30.30;48.40
31675;DHT22;18276;45.520;11.018;2022-10-17T08:11:21;30.60;47.40
31675;DHT22;18276;45.520;11.018;2022-10-17T08:13:48;31.00;47.00
31675;DHT22;18276;45.520;11.018;2022-10-17T08:16:15;31.30;46.20
31675;DHT22;18276;45.520;11.018;2022-10-17T08:18:42;31.60;45.30
31675;DHT22;18276;45.520;11.018;2022-10-17T08:21:10;31.90;44.80
31675;DHT22;18276;45.520;11.018;2022-10-17T08:23:38;32.10;44.30
31675;DHT22;18276;45.520;11.018;2022-10-17T08:26:06;32.20;44.10
31675;DHT22;18276;45.520;11.018;2022-10-17T08:28:38;32.30;44.10
31675;DHT22;18276;45.520;11.018;2022-10-17T08:31:12;32.40;43.90
31675;DHT22;18276;45.520;11.018;2022-10-17T08:33:41;32.40;43.60
31675;DHT22;18276;45.520;11.018;2022-10-17T08:36:09;32.50;43.20
31675;DHT22;18276;45.520;11.018;2022-10-17T08:38:37;32.30;43.30
31675;DHT22;18276;45.520;11.018;2022-10-17T08:47:10;32.10;43.70
31675;DHT22;18276;45.520;11.018;2022-10-17T08:49:42;31.80;44.20
31675;DHT22;18276;45.520;11.018;2022-10-17T08:52:28;31.70;44.30
31675;DHT22;18276;45.520;11.018;2022-10-17T08:54:55;31.60;44.30
31675;DHT22;18276;45.520;11.018;2022-10-17T08:57:22;31.40;45.20
31675;DHT22;18276;45.520;11.018;2022-10-17T08:59:51;31.30;45.80
31675;DHT22;18276;45.520;11.018;2022-10-17T09:08:25;30.50;47.80
31675;DHT22;18276;45.520;11.018;2022-10-17T09:10:57;30.70;47.90
31675;DHT22;18276;45.520;11.018;2022-10-17T09:19:03;30.60;48.20
31675;DHT22;18276;45.520;11.018;2022-10-17T09:21:48;30.70;48.40
31675;DHT22;18276;45.520;11.018;2022-10-17T09:29:54;32.40;45.80
31675;DHT22;18276;45.520;11.018;2022-10-17T09:32:24;32.40;45.30
31675;DHT22;18276;45.520;11.018;2022-10-17T09:34:52;32.40;45.40
31675;DHT22;18276;45.520;11.018;2022-10-17T09:37:26;32.90;45.10
31675;DHT22;18276;45.520;11.018;2022-10-17T09:39:55;33.40;43.70
31675;DHT22;18276;45.520;11.018;2022-10-17T09:42:24;33.50;43.40
31675;DHT22;18276;45.520;11.018;2022-10-17T09:50:29;33.50;43.10
31675;DHT22;18276;45.520;11.018;2022-10-17T09:56:08;32.90;43.40
31675;DHT22;18276;45.520;11.018;2022-10-17T09:58:46;32.60;44.80
31675;DHT22;18276;45.520;11.018;2022-10-17T10:06:36;33.20;43.30
31675;DHT22;18276;45.520;11.018;2022-10-17T10:09:03;33.40;43.30
31675;DHT22;18276;45.520;11.018;2022-10-17T10:12:15;33.50;43.20
31675;DHT22;18276;45.520;11.018;2022-10-17T10:14:43;33.60;42.70
31675;DHT22;18276;45.520;11.018;2022-10-17T10:19:58;33.60;42.70
31675;DHT22;18276;45.520;11.018;2022-10-17T10:22:25;33.60;42.90
31675;DHT22;18276;45.520;11.018;2022-10-17T10:25:25;33.70;42.40
31675;DHT22;18276;45.520;11.018;2022-10-17T10:27:53;33.70;42.40
31675;DHT22;18276;45.520;11.018;2022-10-17T10:30:28;33.80;42.30
31675;DHT22;18276;45.520;11.018;2022-10-17T10:32:57;34.00;41.70
31675;DHT22;18276;45.520;11.018;2022-10-17T10:35:34;33.90;41.90
31675;DHT22;18276;45.520;11.018;2022-10-17T10:38:08;34.10;41.50
31675;DHT22;18276;45.520;11.018;2022-10-17T10:40:51;34.10;41.40
31675;DHT22;18276;45.520;11.018;2022-10-17T10:45:59;34.10;41.10
31675;DHT22;18276;45.520;11.018;2022-10-17T10:48:34;33.90;41.20
31675;DHT22;18276;45.520;11.018;2022-10-17T10:51:15;33.80;41.50
31675;DHT22;18276;45.520;11.018;2022-10-17T10:53:54;34.00;41.90
31675;DHT22;18276;45.520;11.018;2022-10-17T10:59:09;34.10;40.90
31675;DHT22;18276;45.520;11.018;2022-10-17T11:06:49;33.80;41.80
31675;DHT22;18276;45.520;11.018;2022-10-17T11:09:41;33.90;41.30
31675;DHT22;18276;45.520;11.018;2022-10-17T11:20:00;33.10;42.90
31675;DHT22;18276;45.520;11.018;2022-10-17T11:23:03;33.30;42.80
31675;DHT22;18276;45.520;11.018;2022-10-17T11:25:37;33.60;42.10
31675;DHT22;18276;45.520;11.018;2022-10-17T11:28:19;33.90;42.20
31675;DHT22;18276;45.520;11.018;2022-10-17T11:30:52;34.40;40.70
31675;DHT22;18276;45.520;11.018;2022-10-17T11:35:56;33.60;42.00
31675;DHT22;18276;45.520;11.018;2022-10-17T11:41:11;33.70;42.10
31675;DHT22;18276;45.520;11.018;2022-10-17T11:46:54;33.60;42.10
31675;DHT22;18276;45.520;11.018;2022-10-17T11:49:30;33.70;42.40
31675;DHT22;18276;45.520;11.018;2022-10-17T11:52:34;34.10;41.80
31675;DHT22;18276;45.520;11.018;2022-10-17T11:55:29;34.40;40.70
31675;DHT22;18276;45.520;11.018;2022-10-17T12:00:46;34.90;40.20
31675;DHT22;18276;45.520;11.018;2022-10-17T12:06:38;34.40;40.30
31675;DHT22;18276;45.520;11.018;2022-10-17T12:11:59;33.90;41.30
31675;DHT22;18276;45.520;11.018;2022-10-17T12:14:34;33.50;41.70
31675;DHT22;18276;45.520;11.018;2022-10-17T12:17:01;33.10;42.20
31675;DHT22;18276;45.520;11.018;2022-10-17T12:19:34;33.00;42.70
31675;DHT22;18276;45.520;11.018;2022-10-17T12:22:16;32.70;43.20
31675;DHT22;18276;45.520;11.018;2022-10-17T12:24:59;32.40;43.80
31675;DHT22;18276;45.520;11.018;2022-10-17T12:27:40;32.60;43.50
31675;DHT22;18276;45.520;11.018;2022-10-17T12:33:17;32.90;43.30
31675;DHT22;18276;45.520;11.018;2022-10-17T12:35:50;33.00;43.00
31675;DHT22;18276;45.520;11.018;2022-10-17T12:54:11;32.70;42.50
31675;DHT22;18276;45.520;11.018;2022-10-17T12:59:16;32.30;43.20
31675;DHT22;18276;45.520;11.018;2022-10-17T13:01:46;31.90;43.60
31675;DHT22;18276;45.520;11.018;2022-10-17T13:04:14;31.90;43.70
31675;DHT22;18276;45.520;11.018;2022-10-17T13:06:48;31.80;44.00
31675;DHT22;18276;45.520;11.018;2022-10-17T13:09:31;32.20;43.30
31675;DHT22;18276;45.520;11.018;2022-10-17T13:12:02;32.30;43.20
31675;DHT22;18276;45.520;11.018;2022-10-17T13:14:31;32.50;43.30
31675;DHT22;18276;45.520;11.018;2022-10-17T13:17:03;32.90;43.40
31675;DHT22;18276;45.520;11.018;2022-10-17T13:19:41;33.20;43.00
31675;DHT22;18276;45.520;11.018;2022-10-17T13:22:24;33.50;42.40
31675;DHT22;18276;45.520;11.018;2022-10-17T13:25:04;33.70;41.60
31675;DHT22;18276;45.520;11.018;2022-10-17T13:27:34;33.40;41.60
31675;DHT22;18276;45.520;11.018;2022-10-17T13:32:47;32.60;42.80
31675;DHT22;18276;45.520;11.018;2022-10-17T13:35:37;31.90;43.20
31675;DHT22;18276;45.520;11.018;2022-10-17T13:38:26;31.60;44.20
31675;DHT22;18276;45.520;11.018;2022-10-17T13:40:55;31.80;44.60
31675;DHT22;18276;45.520;11.018;2022-10-17T13:43:37;32.10;44.20
31675;DHT22;18276;45.520;11.018;2022-10-17T13:46:05;32.50;43.80
31675;DHT22;18276;45.520;11.018;2022-10-17T13:48:52;32.90;43.10
31675;DHT22;18276;45.520;11.018;2022-10-17T13:51:19;33.00;42.80
31675;DHT22;18276;45.520;11.018;2022-10-17T13:53:46;32.90;42.50
31675;DHT22;18276;45.520;11.018;2022-10-17T13:56:17;32.40;42.80
31675;DHT22;18276;45.520;11.018;2022-10-17T13:59:05;31.80;43.80
31675;DHT22;18276;45.520;11.018;2022-10-17T14:01:34;31.30;44.50
31675;DHT22;18276;45.520;11.018;2022-10-17T14:04:02;30.90;44.80
31675;DHT22;18276;45.520;11.018;2022-10-17T14:06:46;30.60;45.50
31675;DHT22;18276;45.520;11.018;2022-10-17T14:09:28;30.40;46.00
31675;DHT22;18276;45.520;11.018;2022-10-17T14:12:01;30.20;46.10
31675;DHT22;18276;45.520;11.018;2022-10-17T14:14:29;29.90;46.70
31675;DHT22;18276;45.520;11.018;2022-10-17T14:17:22;29.70;47.00
31675;DHT22;18276;45.520;11.018;2022-10-17T14:19:53;29.60;47.60
31675;DHT22;18276;45.520;11.018;2022-10-17T14:22:40;29.50;47.40
31675;DHT22;18276;45.520;11.018;2022-10-17T14:25:30;29.30;47.80
31675;DHT22;18276;45.520;11.018;2022-10-17T14:28:02;29.20;48.20
31675;DHT22;18276;45.520;11.018;2022-10-17T14:31:07;29.00;48.50
31675;DHT22;18276;45.520;11.018;2022-10-17T14:33:25;29.00;48.50
31675;DHT22;18276;45.520;11.018;2022-10-17T14:35:54;29.00;48.70
31675;DHT22;18276;45.520;11.018;2022-10-17T14:38:22;28.90;48.90
31675;DHT22;18276;45.520;11.018;2022-10-17T14:40:52;28.80;49.00
31675;DHT22;18276;45.520;11.018;2022-10-17T14:43:35;28.70;49.30
31675;DHT22;18276;45.520;11.018;2022-10-17T14:46:02;28.70;49.50
31675;DHT22;18276;45.520;11.018;2022-10-17T14:48:29;28.60;49.50
31675;DHT22;18276;45.520;11.018;2022-10-17T14:53:38;28.30;50.20
31675;DHT22;18276;45.520;11.018;2022-10-17T14:56:41;28.20;50.40
31675;DHT22;18276;45.520;11.018;2022-10-17T14:59:08;28.10;50.80
31675;DHT22;18276;45.520;11.018;2022-10-17T15:01:43;27.90;51.50
31675;DHT22;18276;45.520;11.018;2022-10-17T15:04:10;27.70;52.10
31675;DHT22;18276;45.520;11.018;2022-10-17T15:06:37;27.40;52.70
31675;DHT22;18276;45.520;11.018;2022-10-17T15:09:06;27.20;53.40
31675;DHT22;18276;45.520;11.018;2022-10-17T15:11:33;26.80;54.00
31675;DHT22;18276;45.520;11.018;2022-10-17T15:14:00;26.50;54.90
31675;DHT22;18276;45.520;11.018;2022-10-17T15:16:30;26.20;55.90
31675;DHT22;18276;45.520;11.018;2022-10-17T15:18:57;25.70;57.20
31675;DHT22;18276;45.520;11.018;2022-10-17T15:21:25;25.40;57.70
31675;DHT22;18276;45.520;11.018;2022-10-17T15:24:07;25.10;58.20
31675;DHT22;18276;45.520;11.018;2022-10-17T15:26:34;24.80;58.90
31675;DHT22;18276;45.520;11.018;2022-10-17T15:29:01;24.60;59.60
31675;DHT22;18276;45.520;11.018;2022-10-17T15:31:29;24.50;60.10
31675;DHT22;18276;45.520;11.018;2022-10-17T15:33:59;24.30;60.40
31675;DHT22;18276;45.520;11.018;2022-10-17T15:37:01;24.10;60.60
31675;DHT22;18276;45.520;11.018;2022-10-17T15:39:20;23.90;61.10
31675;DHT22;18276;45.520;11.018;2022-10-17T15:41:47;23.70;61.70
31675;DHT22;18276;45.520;11.018;2022-10-17T15:44:14;23.60;62.60
31675;DHT22;18276;45.520;11.018;2022-10-17T15:46:42;23.50;62.90
31675;DHT22;18276;45.520;11.018;2022-10-17T15:49:16;23.40;63.20
31675;DHT22;18276;45.520;11.018;2022-10-17T15:51:44;23.20;63.90
31675;DHT22;18276;45.520;11.018;2022-10-17T15:54:11;23.10;64.10
31675;DHT22;18276;45.520;11.018;2022-10-17T15:56:48;23.10;64.50
31675;DHT22;18276;45.520;11.018;2022-10-17T15:59:20;22.90;64.80
31675;DHT22;18276;45.520;11.018;2022-10-17T16:01:48;22.80;64.90
31675;DHT22;18276;45.520;11.018;2022-10-17T16:04:15;22.70;65.10
31675;DHT22;18276;45.520;11.018;2022-10-17T16:06:44;22.60;65.50
31675;DHT22;18276;45.520;11.018;2022-10-17T16:09:11;22.40;66.90
31675;DHT22;18276;45.520;11.018;2022-10-17T16:11:42;22.30;66.50
31675;DHT22;18276;45.520;11.018;2022-10-17T16:14:14;22.20;67.00
31675;DHT22;18276;45.520;11.018;2022-10-17T16:16:42;22.00;67.60
31675;DHT22;18276;45.520;11.018;2022-10-17T16:19:10;21.90;68.00
31675;DHT22;18276;45.520;11.018;2022-10-17T16:21:39;21.80;68.50
31675;DHT22;18276;45.520;11.018;2022-10-17T16:24:09;21.70;69.00
31675;DHT22;18276;45.520;11.018;2022-10-17T16:26:40;21.50;69.50
31675;DHT22;18276;45.520;11.018;2022-10-17T16:29:08;21.40;70.10
31675;DHT22;18276;45.520;11.018;2022-10-17T16:31:40;21.30;70.50
31675;DHT22;18276;45.520;11.018;2022-10-17T16:34:12;21.20;71.00
31675;DHT22;18276;45.520;11.018;2022-10-17T16:36:40;21.00;71.30
31675;DHT22;18276;45.520;11.018;2022-10-17T16:39:07;20.90;71.70
31675;DHT22;18276;45.520;11.018;2022-10-17T16:41:36;20.80;72.10
31675;DHT22;18276;45.520;11.018;2022-10-17T16:44:06;20.70;72.70
31675;DHT22;18276;45.520;11.018;2022-10-17T16:46:35;20.60;73.10
31675;DHT22;18276;45.520;11.018;2022-10-17T16:49:04;20.50;73.40
31675;DHT22;18276;45.520;11.018;2022-10-17T16:51:31;20.40;73.80
31675;DHT22;18276;45.520;11.018;2022-10-17T16:53:59;20.30;74.90
31675;DHT22;18276;45.520;11.018;2022-10-17T16:56:27;20.20;74.50
31675;DHT22;18276;45.520;11.018;2022-10-17T16:58:58;20.20;74.90
31675;DHT22;18276;45.520;11.018;2022-10-17T17:01:26;20.10;75.10
31675;DHT22;18276;45.520;11.018;2022-10-17T17:03:55;20.10;75.50
31675;DHT22;18276;45.520;11.018;2022-10-17T17:06:25;20.00;75.80
31675;DHT22;18276;45.520;11.018;2022-10-17T17:08:53;20.00;76.30
31675;DHT22;18276;45.520;11.018;2022-10-17T17:11:22;19.90;76.50
31675;DHT22;18276;45.520;11.018;2022-10-17T17:13:50;19.90;76.70
31675;DHT22;18276;45.520;11.018;2022-10-17T17:16:20;19.90;76.80
31675;DHT22;18276;45.520;11.018;2022-10-17T17:18:47;19.90;77.10
31675;DHT22;18276;45.520;11.018;2022-10-17T17:21:17;19.90;77.30
31675;DHT22;18276;45.520;11.018;2022-10-17T17:23:44;19.80;77.40
31675;DHT22;18276;45.520;11.018;2022-10-17T17:26:16;19.80;77.60
31675;DHT22;18276;45.520;11.018;2022-10-17T17:28:44;19.70;77.80
31675;DHT22;18276;45.520;11.018;2022-10-17T17:31:20;19.70;77.80
31675;DHT22;18276;45.520;11.018;2022-10-17T17:33:50;19.60;78.10
31675;DHT22;18276;45.520;11.018;2022-10-17T17:36:21;19.60;78.30
31675;DHT22;18276;45.520;11.018;2022-10-17T17:38:49;19.50;78.50
31675;DHT22;18276;45.520;11.018;2022-10-17T17:41:18;19.40;78.70
31675;DHT22;18276;45.520;11.018;2022-10-17T17:43:46;19.40;79.10
31675;DHT22;18276;45.520;11.018;2022-10-17T17:46:15;19.30;79.30
31675;DHT22;18276;45.520;11.018;2022-10-17T17:48:44;19.30;80.30
31675;DHT22;18276;45.520;11.018;2022-10-17T17:51:14;19.30;79.80
31675;DHT22;18276;45.520;11.018;2022-10-17T17:53:41;19.20;80.00